sensor_id;sensor_type;location;lat;lon;timestamp;P1;durP1;ratioP1;P2;durP2;ratioP2
41923;SDS011;27613;48.116;11.656;2023-07-31T00:00:06;2.83;;;1.50;;
41923;SDS011;27613;48.116;11.656;2023-07-31T00:02:33;1.80;;;1.23;;
41923;SDS011;27613;48.116;11.656;2023-07-31T00:04:59;2.72;;;1.30;;
41923;SDS011;27613;48.116;11.656;2023-07-31T00:07:25;2.40;;;1.17;;
41923;SDS011;27613;48.116;11.656;2023-07-31T00:09:51;1.65;;;1.17;;
41923;SDS011;27613;48.116;11.656;2023-07-31T00:12:18;1.95;;;0.90;;
41923;SDS011;27613;48.116;11.656;2023-07-31T00:14:44;2.80;;;1.30;;
41923;SDS011;27613;48.116;11.656;2023-07-31T00:17:10;2.90;;;1.40;;
41923;SDS011;27613;48.116;11.656;2023-07-31T00:19:35;2.75;;;1.15;;
41923;SDS011;27613;48.116;11.656;2023-07-31T00:22:01;2.90;;;1.38;;
41923;SDS011;27613;48.116;11.656;2023-07-31T00:24:26;1.95;;;1.27;;
41923;SDS011;27613;48.116;11.656;2023-07-31T00:26:52;1.70;;;1.13;;
41923;SDS011;27613;48.116;11.656;2023-07-31T00:29:18;2.22;;;1.30;;
41923;SDS011;27613;48.116;11.656;2023-07-31T00:31:43;2.00;;;1.00;;
41923;SDS011;27613;48.116;11.656;2023-07-31T00:34:09;3.63;;;1.33;;
41923;SDS011;27613;48.116;11.656;2023-07-31T00:36:35;1.75;;;1.20;;
41923;SDS011;27613;48.116;11.656;2023-07-31T00:39:00;1.50;;;1.00;;
41923;SDS011;27613;48.116;11.656;2023-07-31T00:41:26;1.55;;;1.10;;
41923;SDS011;27613;48.116;11.656;2023-07-31T00:43:51;2.97;;;1.30;;
41923;SDS011;27613;48.116;11.656;2023-07-31T00:46:17;2.80;;;1.23;;
41923;SDS011;27613;48.116;11.656;2023-07-31T00:48:42;1.90;;;1.15;;
41923;SDS011;27613;48.116;11.656;2023-07-31T00:51:08;2.40;;;1.20;;
41923;SDS011;27613;48.116;11.656;2023-07-31T00:53:35;2.00;;;1.30;;
41923;SDS011;27613;48.116;11.656;2023-07-31T00:56:01;4.55;;;1.30;;
41923;SDS011;27613;48.116;11.656;2023-07-31T00:58:27;6.95;;;1.98;;
41923;SDS011;27613;48.116;11.656;2023-07-31T01:00:52;16.95;;;3.75;;
41923;SDS011;27613;48.116;11.656;2023-07-31T01:03:18;4.82;;;1.77;;
41923;SDS011;27613;48.116;11.656;2023-07-31T01:05:49;4.68;;;1.50;;
41923;SDS011;27613;48.116;11.656;2023-07-31T01:08:34;14.52;;;2.83;;
41923;SDS011;27613;48.116;11.656;2023-07-31T01:11:10;2.92;;;1.40;;
41923;SDS011;27613;48.116;11.656;2023-07-31T01:13:48;2.28;;;1.50;;
41923;SDS011;27613;48.116;11.656;2023-07-31T01:16:14;1.77;;;1.17;;
41923;SDS011;27613;48.116;11.656;2023-07-31T01:18:39;1.50;;;1.00;;
41923;SDS011;27613;48.116;11.656;2023-07-31T01:21:18;2.25;;;1.40;;
41923;SDS011;27613;48.116;11.656;2023-07-31T01:27:04;3.53;;;1.20;;
41923;SDS011;27613;48.116;11.656;2023-07-31T01:29:38;2.03;;;1.38;;
41923;SDS011;27613;48.116;11.656;2023-07-31T01:32:10;2.65;;;1.40;;
41923;SDS011;27613;48.116;11.656;2023-07-31T01:34:36;4.32;;;1.50;;
41923;SDS011;27613;48.116;11.656;2023-07-31T01:37:02;3.13;;;1.25;;
41923;SDS011;27613;48.116;11.656;2023-07-31T01:39:28;1.98;;;1.23;;
41923;SDS011;27613;48.116;11.656;2023-07-31T01:41:54;3.58;;;1.30;;
41923;SDS011;27613;48.116;11.656;2023-07-31T01:44:19;5.18;;;1.55;;
41923;SDS011;27613;48.116;11.656;2023-07-31T01:46:45;3.72;;;1.48;;
41923;SDS011;27613;48.116;11.656;2023-07-31T01:49:10;2.63;;;1.13;;
41923;SDS011;27613;48.116;11.656;2023-07-31T01:51:36;1.73;;;1.20;;
41923;SDS011;27613;48.116;11.656;2023-07-31T01:54:01;3.90;;;1.55;;
41923;SDS011;27613;48.116;11.656;2023-07-31T01:56:27;2.22;;;1.30;;
41923;SDS011;27613;48.116;11.656;2023-07-31T01:58:53;3.63;;;1.65;;
41923;SDS011;27613;48.116;11.656;2023-07-31T02:01:18;4.30;;;1.60;;
41923;SDS011;27613;48.116;11.656;2023-07-31T02:03:44;1.98;;;1.20;;
41923;SDS011;27613;48.116;11.656;2023-07-31T02:06:09;2.50;;;1.13;;
41923;SDS011;27613;48.116;11.656;2023-07-31T02:08:35;2.38;;;1.17;;
41923;SDS011;27613;48.116;11.656;2023-07-31T02:11:01;4.03;;;1.60;;
41923;SDS011;27613;48.116;11.656;2023-07-31T02:13:26;2.70;;;1.30;;
41923;SDS011;27613;48.116;11.656;2023-07-31T02:15:52;2.00;;;1.23;;
41923;SDS011;27613;48.116;11.656;2023-07-31T02:18:17;1.95;;;1.20;;
41923;SDS011;27613;48.116;11.656;2023-07-31T02:20:43;3.58;;;1.67;;
41923;SDS011;27613;48.116;11.656;2023-07-31T02:23:14;2.55;;;1.33;;
41923;SDS011;27613;48.116;11.656;2023-07-31T02:25:39;2.70;;;1.48;;
41923;SDS011;27613;48.116;11.656;2023-07-31T02:28:04;3.25;;;1.27;;
41923;SDS011;27613;48.116;11.656;2023-07-31T02:30:30;2.13;;;1.25;;
41923;SDS011;27613;48.116;11.656;2023-07-31T02:32:56;2.08;;;1.40;;
41923;SDS011;27613;48.116;11.656;2023-07-31T02:35:21;2.97;;;1.35;;
41923;SDS011;27613;48.116;11.656;2023-07-31T02:37:47;6.70;;;1.88;;
41923;SDS011;27613;48.116;11.656;2023-07-31T02:40:12;4.20;;;1.67;;
41923;SDS011;27613;48.116;11.656;2023-07-31T02:42:38;3.55;;;1.80;;
41923;SDS011;27613;48.116;11.656;2023-07-31T02:45:04;2.38;;;1.27;;
41923;SDS011;27613;48.116;11.656;2023-07-31T02:47:29;4.07;;;1.90;;
41923;SDS011;27613;48.116;11.656;2023-07-31T02:49:55;2.83;;;1.35;;
41923;SDS011;27613;48.116;11.656;2023-07-31T02:52:21;2.45;;;1.40;;
41923;SDS011;27613;48.116;11.656;2023-07-31T02:54:46;2.00;;;1.33;;
41923;SDS011;27613;48.116;11.656;2023-07-31T02:57:12;2.30;;;1.50;;
41923;SDS011;27613;48.116;11.656;2023-07-31T02:59:37;4.68;;;1.60;;
41923;SDS011;27613;48.116;11.656;2023-07-31T03:02:03;2.47;;;1.20;;
41923;SDS011;27613;48.116;11.656;2023-07-31T03:04:28;2.10;;;1.38;;
41923;SDS011;27613;48.116;11.656;2023-07-31T03:06:54;3.17;;;1.60;;
41923;SDS011;27613;48.116;11.656;2023-07-31T03:09:19;2.05;;;1.40;;
41923;SDS011;27613;48.116;11.656;2023-07-31T03:11:45;2.47;;;1.23;;
41923;SDS011;27613;48.116;11.656;2023-07-31T03:14:10;3.10;;;1.60;;
41923;SDS011;27613;48.116;11.656;2023-07-31T03:16:36;2.17;;;1.27;;
41923;SDS011;27613;48.116;11.656;2023-07-31T03:19:01;2.53;;;1.40;;
41923;SDS011;27613;48.116;11.656;2023-07-31T03:21:27;3.05;;;1.50;;
41923;SDS011;27613;48.116;11.656;2023-07-31T03:23:53;2.53;;;1.50;;
41923;SDS011;27613;48.116;11.656;2023-07-31T03:26:18;2.53;;;1.80;;
41923;SDS011;27613;48.116;11.656;2023-07-31T03:28:44;2.05;;;1.33;;
41923;SDS011;27613;48.116;11.656;2023-07-31T03:31:09;2.25;;;1.42;;
41923;SDS011;27613;48.116;11.656;2023-07-31T03:33:36;3.40;;;1.40;;
41923;SDS011;27613;48.116;11.656;2023-07-31T03:36:01;2.35;;;1.50;;
41923;SDS011;27613;48.116;11.656;2023-07-31T03:38:27;3.85;;;1.90;;
41923;SDS011;27613;48.116;11.656;2023-07-31T03:40:53;4.20;;;1.90;;
41923;SDS011;27613;48.116;11.656;2023-07-31T03:43:18;2.90;;;1.67;;
41923;SDS011;27613;48.116;11.656;2023-07-31T03:45:44;1.95;;;1.48;;
41923;SDS011;27613;48.116;11.656;2023-07-31T03:48:09;2.92;;;1.70;;
41923;SDS011;27613;48.116;11.656;2023-07-31T03:50:35;2.90;;;1.80;;
41923;SDS011;27613;48.116;11.656;2023-07-31T03:53:00;3.00;;;1.60;;
41923;SDS011;27613;48.116;11.656;2023-07-31T03:55:26;2.42;;;1.50;;
41923;SDS011;27613;48.116;11.656;2023-07-31T03:57:51;2.50;;;1.65;;
41923;SDS011;27613;48.116;11.656;2023-07-31T04:00:17;1.98;;;1.35;;
41923;SDS011;27613;48.116;11.656;2023-07-31T04:02:43;3.10;;;1.58;;
41923;SDS011;27613;48.116;11.656;2023-07-31T04:05:08;2.17;;;1.42;;
41923;SDS011;27613;48.116;11.656;2023-07-31T04:07:34;2.70;;;1.50;;
41923;SDS011;27613;48.116;11.656;2023-07-31T04:10:00;2.70;;;1.52;;
41923;SDS011;27613;48.116;11.656;2023-07-31T04:12:25;2.88;;;2.25;;
41923;SDS011;27613;48.116;11.656;2023-07-31T04:14:51;4.25;;;2.78;;
41923;SDS011;27613;48.116;11.656;2023-07-31T04:17:19;3.30;;;2.00;;
41923;SDS011;27613;48.116;11.656;2023-07-31T04:19:45;2.38;;;1.67;;
41923;SDS011;27613;48.116;11.656;2023-07-31T04:22:10;8.65;;;2.08;;
41923;SDS011;27613;48.116;11.656;2023-07-31T04:24:36;3.25;;;1.90;;
41923;SDS011;27613;48.116;11.656;2023-07-31T04:27:01;3.35;;;1.70;;
41923;SDS011;27613;48.116;11.656;2023-07-31T04:29:27;2.25;;;1.58;;
41923;SDS011;27613;48.116;11.656;2023-07-31T04:31:53;4.28;;;1.90;;
41923;SDS011;27613;48.116;11.656;2023-07-31T04:34:18;5.50;;;1.92;;
41923;SDS011;27613;48.116;11.656;2023-07-31T04:36:44;2.95;;;1.83;;
41923;SDS011;27613;48.116;11.656;2023-07-31T04:39:09;2.58;;;1.63;;
41923;SDS011;27613;48.116;11.656;2023-07-31T04:41:35;3.17;;;1.80;;
41923;SDS011;27613;48.116;11.656;2023-07-31T04:44:01;3.55;;;1.80;;
41923;SDS011;27613;48.116;11.656;2023-07-31T04:46:26;5.05;;;2.10;;
41923;SDS011;27613;48.116;11.656;2023-07-31T04:48:52;2.58;;;1.50;;
41923;SDS011;27613;48.116;11.656;2023-07-31T04:51:17;4.32;;;1.70;;
41923;SDS011;27613;48.116;11.656;2023-07-31T04:53:43;2.60;;;1.77;;
41923;SDS011;27613;48.116;11.656;2023-07-31T04:56:08;4.80;;;3.00;;
41923;SDS011;27613;48.116;11.656;2023-07-31T04:58:34;5.63;;;1.77;;
41923;SDS011;27613;48.116;11.656;2023-07-31T05:00:59;3.72;;;2.30;;
41923;SDS011;27613;48.116;11.656;2023-07-31T05:03:25;5.53;;;1.92;;
41923;SDS011;27613;48.116;11.656;2023-07-31T05:05:50;4.57;;;2.00;;
41923;SDS011;27613;48.116;11.656;2023-07-31T05:08:16;3.72;;;1.88;;
41923;SDS011;27613;48.116;11.656;2023-07-31T05:10:44;2.97;;;1.80;;
41923;SDS011;27613;48.116;11.656;2023-07-31T05:13:10;4.25;;;2.15;;
41923;SDS011;27613;48.116;11.656;2023-07-31T05:15:35;2.42;;;1.55;;
41923;SDS011;27613;48.116;11.656;2023-07-31T05:18:01;3.42;;;1.95;;
41923;SDS011;27613;48.116;11.656;2023-07-31T05:20:27;4.13;;;1.63;;
41923;SDS011;27613;48.116;11.656;2023-07-31T05:22:52;8.68;;;2.25;;
41923;SDS011;27613;48.116;11.656;2023-07-31T05:25:18;2.70;;;1.70;;
41923;SDS011;27613;48.116;11.656;2023-07-31T05:27:43;3.70;;;1.70;;
41923;SDS011;27613;48.116;11.656;2023-07-31T05:30:09;2.85;;;1.55;;
41923;SDS011;27613;48.116;11.656;2023-07-31T05:32:34;3.03;;;1.70;;
41923;SDS011;27613;48.116;11.656;2023-07-31T05:35:00;3.30;;;1.63;;
41923;SDS011;27613;48.116;11.656;2023-07-31T05:37:25;3.50;;;1.60;;
41923;SDS011;27613;48.116;11.656;2023-07-31T05:39:51;2.97;;;1.60;;
41923;SDS011;27613;48.116;11.656;2023-07-31T05:42:17;2.15;;;1.50;;
41923;SDS011;27613;48.116;11.656;2023-07-31T05:44:42;2.95;;;1.90;;
41923;SDS011;27613;48.116;11.656;2023-07-31T05:47:08;2.65;;;1.52;;
41923;SDS011;27613;48.116;11.656;2023-07-31T05:49:34;4.80;;;1.30;;
41923;SDS011;27613;48.116;11.656;2023-07-31T05:51:59;3.28;;;1.48;;
41923;SDS011;27613;48.116;11.656;2023-07-31T05:54:25;3.08;;;1.70;;
41923;SDS011;27613;48.116;11.656;2023-07-31T05:56:50;2.10;;;1.52;;
41923;SDS011;27613;48.116;11.656;2023-07-31T05:59:16;4.88;;;1.80;;
41923;SDS011;27613;48.116;11.656;2023-07-31T06:01:42;3.88;;;1.70;;
41923;SDS011;27613;48.116;11.656;2023-07-31T06:04:07;3.25;;;1.52;;
41923;SDS011;27613;48.116;11.656;2023-07-31T06:06:33;4.05;;;1.55;;
41923;SDS011;27613;48.116;11.656;2023-07-31T06:08:59;2.08;;;1.40;;
41923;SDS011;27613;48.116;11.656;2023-07-31T06:11:24;4.03;;;1.35;;
41923;SDS011;27613;48.116;11.656;2023-07-31T06:13:50;2.70;;;1.45;;
41923;SDS011;27613;48.116;11.656;2023-07-31T06:16:15;2.75;;;1.33;;
41923;SDS011;27613;48.116;11.656;2023-07-31T06:18:42;2.22;;;1.15;;
41923;SDS011;27613;48.116;11.656;2023-07-31T06:21:08;2.08;;;1.40;;
41923;SDS011;27613;48.116;11.656;2023-07-31T06:23:34;2.33;;;1.30;;
41923;SDS011;27613;48.116;11.656;2023-07-31T06:26:00;2.50;;;1.40;;
41923;SDS011;27613;48.116;11.656;2023-07-31T06:28:29;2.88;;;1.60;;
41923;SDS011;27613;48.116;11.656;2023-07-31T06:30:55;2.50;;;1.30;;
41923;SDS011;27613;48.116;11.656;2023-07-31T06:33:21;3.15;;;1.42;;
41923;SDS011;27613;48.116;11.656;2023-07-31T06:35:46;2.47;;;1.40;;
41923;SDS011;27613;48.116;11.656;2023-07-31T06:38:12;3.17;;;1.48;;
41923;SDS011;27613;48.116;11.656;2023-07-31T06:40:38;2.28;;;1.25;;
41923;SDS011;27613;48.116;11.656;2023-07-31T06:43:03;2.10;;;1.17;;
41923;SDS011;27613;48.116;11.656;2023-07-31T06:45:33;1.73;;;1.00;;
41923;SDS011;27613;48.116;11.656;2023-07-31T06:48:00;2.83;;;1.10;;
41923;SDS011;27613;48.116;11.656;2023-07-31T06:50:27;1.85;;;1.20;;
41923;SDS011;27613;48.116;11.656;2023-07-31T06:52:53;4.38;;;1.17;;
41923;SDS011;27613;48.116;11.656;2023-07-31T06:55:19;2.63;;;1.20;;
41923;SDS011;27613;48.116;11.656;2023-07-31T06:57:47;3.55;;;1.30;;
41923;SDS011;27613;48.116;11.656;2023-07-31T07:00:13;2.00;;;1.23;;
41923;SDS011;27613;48.116;11.656;2023-07-31T07:02:39;2.67;;;1.20;;
41923;SDS011;27613;48.116;11.656;2023-07-31T07:05:04;3.42;;;1.10;;
41923;SDS011;27613;48.116;11.656;2023-07-31T07:07:31;2.35;;;1.23;;
41923;SDS011;27613;48.116;11.656;2023-07-31T07:09:57;3.28;;;1.40;;
41923;SDS011;27613;48.116;11.656;2023-07-31T07:12:24;3.03;;;1.52;;
41923;SDS011;27613;48.116;11.656;2023-07-31T07:14:50;1.38;;;1.10;;
41923;SDS011;27613;48.116;11.656;2023-07-31T07:17:17;2.45;;;1.20;;
41923;SDS011;27613;48.116;11.656;2023-07-31T07:19:47;3.08;;;1.20;;
41923;SDS011;27613;48.116;11.656;2023-07-31T07:22:13;3.50;;;1.38;;
41923;SDS011;27613;48.116;11.656;2023-07-31T07:24:39;1.63;;;1.00;;
41923;SDS011;27613;48.116;11.656;2023-07-31T07:27:04;2.70;;;1.33;;
41923;SDS011;27613;48.116;11.656;2023-07-31T07:29:30;1.60;;;1.10;;
41923;SDS011;27613;48.116;11.656;2023-07-31T07:31:56;2.72;;;1.25;;
41923;SDS011;27613;48.116;11.656;2023-07-31T07:34:27;2.10;;;1.30;;
41923;SDS011;27613;48.116;11.656;2023-07-31T07:36:53;4.07;;;1.23;;
41923;SDS011;27613;48.116;11.656;2023-07-31T07:39:19;4.15;;;1.40;;
41923;SDS011;27613;48.116;11.656;2023-07-31T07:41:45;2.78;;;1.50;;
41923;SDS011;27613;48.116;11.656;2023-07-31T07:44:11;2.45;;;1.20;;
41923;SDS011;27613;48.116;11.656;2023-07-31T07:46:38;2.00;;;1.30;;
41923;SDS011;27613;48.116;11.656;2023-07-31T07:49:03;2.13;;;1.20;;
41923;SDS011;27613;48.116;11.656;2023-07-31T07:51:29;2.45;;;1.25;;
41923;SDS011;27613;48.116;11.656;2023-07-31T07:53:56;2.15;;;1.30;;
41923;SDS011;27613;48.116;11.656;2023-07-31T07:56:22;3.10;;;1.55;;
41923;SDS011;27613;48.116;11.656;2023-07-31T07:58:49;2.17;;;1.10;;
41923;SDS011;27613;48.116;11.656;2023-07-31T08:01:15;2.35;;;1.20;;
41923;SDS011;27613;48.116;11.656;2023-07-31T08:03:41;2.20;;;1.30;;
41923;SDS011;27613;48.116;11.656;2023-07-31T08:06:06;2.22;;;1.15;;
41923;SDS011;27613;48.116;11.656;2023-07-31T08:08:34;2.85;;;1.60;;
41923;SDS011;27613;48.116;11.656;2023-07-31T08:11:00;7.43;;;1.38;;
41923;SDS011;27613;48.116;11.656;2023-07-31T08:13:25;2.63;;;1.30;;
41923;SDS011;27613;48.116;11.656;2023-07-31T08:15:51;1.88;;;1.10;;
41923;SDS011;27613;48.116;11.656;2023-07-31T08:18:16;2.50;;;1.20;;
41923;SDS011;27613;48.116;11.656;2023-07-31T08:20:42;2.13;;;1.00;;
41923;SDS011;27613;48.116;11.656;2023-07-31T08:23:08;2.80;;;0.95;;
41923;SDS011;27613;48.116;11.656;2023-07-31T08:25:34;3.75;;;1.20;;
41923;SDS011;27613;48.116;11.656;2023-07-31T08:28:00;3.40;;;1.25;;
41923;SDS011;27613;48.116;11.656;2023-07-31T08:30:26;1.65;;;1.05;;
41923;SDS011;27613;48.116;11.656;2023-07-31T08:32:52;1.77;;;0.93;;
41923;SDS011;27613;48.116;11.656;2023-07-31T08:35:17;2.10;;;0.95;;
41923;SDS011;27613;48.116;11.656;2023-07-31T08:37:43;2.13;;;1.20;;
41923;SDS011;27613;48.116;11.656;2023-07-31T08:40:09;3.45;;;1.30;;
41923;SDS011;27613;48.116;11.656;2023-07-31T08:42:42;4.30;;;1.27;;
41923;SDS011;27613;48.116;11.656;2023-07-31T08:45:09;3.28;;;1.20;;
41923;SDS011;27613;48.116;11.656;2023-07-31T08:47:38;3.47;;;1.45;;
41923;SDS011;27613;48.116;11.656;2023-07-31T08:50:04;3.38;;;1.38;;
41923;SDS011;27613;48.116;11.656;2023-07-31T08:52:31;2.20;;;1.30;;
41923;SDS011;27613;48.116;11.656;2023-07-31T08:54:56;1.70;;;1.02;;
41923;SDS011;27613;48.116;11.656;2023-07-31T08:57:22;2.15;;;1.08;;
41923;SDS011;27613;48.116;11.656;2023-07-31T08:59:49;2.75;;;1.02;;
41923;SDS011;27613;48.116;11.656;2023-07-31T09:02:15;2.50;;;1.20;;
41923;SDS011;27613;48.116;11.656;2023-07-31T09:04:42;3.88;;;1.50;;
41923;SDS011;27613;48.116;11.656;2023-07-31T09:07:07;2.08;;;1.20;;
41923;SDS011;27613;48.116;11.656;2023-07-31T09:09:34;2.85;;;1.30;;
41923;SDS011;27613;48.116;11.656;2023-07-31T09:11:59;2.90;;;1.40;;
41923;SDS011;27613;48.116;11.656;2023-07-31T09:14:26;3.10;;;1.20;;
41923;SDS011;27613;48.116;11.656;2023-07-31T09:16:53;2.10;;;1.13;;
41923;SDS011;27613;48.116;11.656;2023-07-31T09:19:27;2.20;;;1.02;;
41923;SDS011;27613;48.116;11.656;2023-07-31T09:22:01;2.65;;;1.23;;
41923;SDS011;27613;48.116;11.656;2023-07-31T09:24:31;2.28;;;1.02;;
41923;SDS011;27613;48.116;11.656;2023-07-31T09:26:58;2.13;;;1.10;;
41923;SDS011;27613;48.116;11.656;2023-07-31T09:29:25;4.05;;;1.50;;
41923;SDS011;27613;48.116;11.656;2023-07-31T09:31:51;3.17;;;1.38;;
41923;SDS011;27613;48.116;11.656;2023-07-31T09:34:18;2.72;;;1.27;;
41923;SDS011;27613;48.116;11.656;2023-07-31T09:36:48;1.63;;;0.98;;
41923;SDS011;27613;48.116;11.656;2023-07-31T09:39:16;2.88;;;1.15;;
41923;SDS011;27613;48.116;11.656;2023-07-31T09:41:43;2.80;;;1.30;;
41923;SDS011;27613;48.116;11.656;2023-07-31T09:44:10;2.00;;;1.05;;
41923;SDS011;27613;48.116;11.656;2023-07-31T09:46:36;1.73;;;1.10;;
41923;SDS011;27613;48.116;11.656;2023-07-31T09:49:06;2.15;;;0.90;;
41923;SDS011;27613;48.116;11.656;2023-07-31T09:51:40;2.95;;;1.20;;
41923;SDS011;27613;48.116;11.656;2023-07-31T09:54:14;2.95;;;1.20;;
41923;SDS011;27613;48.116;11.656;2023-07-31T09:56:45;3.83;;;1.23;;
41923;SDS011;27613;48.116;11.656;2023-07-31T09:59:12;1.65;;;0.85;;
41923;SDS011;27613;48.116;11.656;2023-07-31T10:01:42;2.35;;;1.02;;
41923;SDS011;27613;48.116;11.656;2023-07-31T10:04:09;3.67;;;1.20;;
41923;SDS011;27613;48.116;11.656;2023-07-31T10:06:36;2.17;;;1.02;;
41923;SDS011;27613;48.116;11.656;2023-07-31T10:09:03;2.33;;;1.02;;
41923;SDS011;27613;48.116;11.656;2023-07-31T10:11:32;4.05;;;1.23;;
41923;SDS011;27613;48.116;11.656;2023-07-31T10:14:04;1.50;;;1.00;;
41923;SDS011;27613;48.116;11.656;2023-07-31T10:16:32;3.47;;;1.15;;
41923;SDS011;27613;48.116;11.656;2023-07-31T10:18:59;2.75;;;1.15;;
41923;SDS011;27613;48.116;11.656;2023-07-31T10:21:25;2.03;;;1.10;;
41923;SDS011;27613;48.116;11.656;2023-07-31T10:23:51;2.08;;;1.15;;
41923;SDS011;27613;48.116;11.656;2023-07-31T10:26:17;1.58;;;1.02;;
41923;SDS011;27613;48.116;11.656;2023-07-31T10:28:45;2.47;;;1.00;;
41923;SDS011;27613;48.116;11.656;2023-07-31T10:31:13;2.30;;;1.00;;
41923;SDS011;27613;48.116;11.656;2023-07-31T10:33:39;2.95;;;1.20;;
41923;SDS011;27613;48.116;11.656;2023-07-31T10:36:11;1.88;;;1.15;;
41923;SDS011;27613;48.116;11.656;2023-07-31T10:38:39;2.45;;;0.90;;
41923;SDS011;27613;48.116;11.656;2023-07-31T10:41:11;1.85;;;0.88;;
41923;SDS011;27613;48.116;11.656;2023-07-31T10:43:37;2.03;;;1.20;;
41923;SDS011;27613;48.116;11.656;2023-07-31T10:46:11;1.90;;;1.20;;
41923;SDS011;27613;48.116;11.656;2023-07-31T10:48:38;2.13;;;1.10;;
41923;SDS011;27613;48.116;11.656;2023-07-31T10:51:10;1.98;;;1.20;;
41923;SDS011;27613;48.116;11.656;2023-07-31T10:56:09;1.83;;;1.02;;
41923;SDS011;27613;48.116;11.656;2023-07-31T10:58:39;2.55;;;1.45;;
41923;SDS011;27613;48.116;11.656;2023-07-31T11:01:05;1.65;;;1.00;;
41923;SDS011;27613;48.116;11.656;2023-07-31T11:03:47;2.50;;;1.30;;
41923;SDS011;27613;48.116;11.656;2023-07-31T11:06:14;1.58;;;1.00;;
41923;SDS011;27613;48.116;11.656;2023-07-31T11:08:42;3.22;;;1.33;;
41923;SDS011;27613;48.116;11.656;2023-07-31T11:11:10;3.25;;;1.48;;
41923;SDS011;27613;48.116;11.656;2023-07-31T11:13:40;1.77;;;0.93;;
41923;SDS011;27613;48.116;11.656;2023-07-31T11:16:06;2.58;;;1.23;;
41923;SDS011;27613;48.116;11.656;2023-07-31T11:18:32;1.70;;;1.10;;
41923;SDS011;27613;48.116;11.656;2023-07-31T11:20:57;1.98;;;1.10;;
41923;SDS011;27613;48.116;11.656;2023-07-31T11:23:23;2.05;;;1.10;;
41923;SDS011;27613;48.116;11.656;2023-07-31T11:25:49;2.38;;;1.23;;
41923;SDS011;27613;48.116;11.656;2023-07-31T11:28:16;2.25;;;1.13;;
41923;SDS011;27613;48.116;11.656;2023-07-31T11:30:43;2.13;;;1.20;;
41923;SDS011;27613;48.116;11.656;2023-07-31T11:33:10;2.83;;;1.33;;
41923;SDS011;27613;48.116;11.656;2023-07-31T11:35:44;1.67;;;1.00;;
41923;SDS011;27613;48.116;11.656;2023-07-31T11:38:12;1.90;;;1.20;;
41923;SDS011;27613;48.116;11.656;2023-07-31T11:40:45;3.15;;;1.45;;
41923;SDS011;27613;48.116;11.656;2023-07-31T11:43:21;1.65;;;1.08;;
41923;SDS011;27613;48.116;11.656;2023-07-31T11:45:50;1.67;;;1.00;;
41923;SDS011;27613;48.116;11.656;2023-07-31T11:50:50;1.88;;;1.20;;
41923;SDS011;27613;48.116;11.656;2023-07-31T11:53:17;2.22;;;0.98;;
41923;SDS011;27613;48.116;11.656;2023-07-31T11:55:47;2.20;;;1.17;;
41923;SDS011;27613;48.116;11.656;2023-07-31T11:58:13;2.28;;;1.30;;
41923;SDS011;27613;48.116;11.656;2023-07-31T12:00:41;1.65;;;1.13;;
41923;SDS011;27613;48.116;11.656;2023-07-31T12:03:06;1.63;;;1.08;;
41923;SDS011;27613;48.116;11.656;2023-07-31T12:05:32;1.65;;;1.13;;
41923;SDS011;27613;48.116;11.656;2023-07-31T12:07:58;1.70;;;1.02;;
41923;SDS011;27613;48.116;11.656;2023-07-31T12:10:26;2.15;;;1.30;;
41923;SDS011;27613;48.116;11.656;2023-07-31T12:17:59;1.85;;;1.10;;
41923;SDS011;27613;48.116;11.656;2023-07-31T12:20:28;2.53;;;1.20;;
41923;SDS011;27613;48.116;11.656;2023-07-31T12:22:56;2.08;;;1.08;;
41923;SDS011;27613;48.116;11.656;2023-07-31T12:25:23;2.42;;;1.27;;
41923;SDS011;27613;48.116;11.656;2023-07-31T12:27:53;1.60;;;0.80;;
41923;SDS011;27613;48.116;11.656;2023-07-31T12:30:34;1.60;;;0.82;;
41923;SDS011;27613;48.116;11.656;2023-07-31T12:33:06;1.63;;;1.17;;
41923;SDS011;27613;48.116;11.656;2023-07-31T12:35:39;2.55;;;1.00;;
41923;SDS011;27613;48.116;11.656;2023-07-31T12:38:10;2.03;;;1.23;;
41923;SDS011;27613;48.116;11.656;2023-07-31T12:40:37;1.23;;;1.00;;
41923;SDS011;27613;48.116;11.656;2023-07-31T12:43:04;1.60;;;0.90;;
41923;SDS011;27613;48.116;11.656;2023-07-31T12:45:30;1.30;;;1.00;;
41923;SDS011;27613;48.116;11.656;2023-07-31T12:47:57;1.75;;;1.00;;
41923;SDS011;27613;48.116;11.656;2023-07-31T12:50:23;2.13;;;1.20;;
41923;SDS011;27613;48.116;11.656;2023-07-31T12:52:49;1.75;;;1.10;;
41923;SDS011;27613;48.116;11.656;2023-07-31T12:55:15;2.00;;;1.20;;
41923;SDS011;27613;48.116;11.656;2023-07-31T12:57:40;2.58;;;1.10;;
41923;SDS011;27613;48.116;11.656;2023-07-31T13:00:07;1.23;;;0.90;;
41923;SDS011;27613;48.116;11.656;2023-07-31T13:02:33;2.38;;;1.30;;
41923;SDS011;27613;48.116;11.656;2023-07-31T13:04:58;2.03;;;1.00;;
41923;SDS011;27613;48.116;11.656;2023-07-31T13:07:24;2.58;;;1.23;;
41923;SDS011;27613;48.116;11.656;2023-07-31T13:09:50;1.58;;;1.00;;
41923;SDS011;27613;48.116;11.656;2023-07-31T13:12:16;1.88;;;1.10;;
41923;SDS011;27613;48.116;11.656;2023-07-31T13:14:41;1.55;;;1.13;;
41923;SDS011;27613;48.116;11.656;2023-07-31T13:17:07;2.13;;;1.10;;
41923;SDS011;27613;48.116;11.656;2023-07-31T13:19:32;1.65;;;1.02;;
41923;SDS011;27613;48.116;11.656;2023-07-31T13:21:58;3.42;;;1.10;;
41923;SDS011;27613;48.116;11.656;2023-07-31T13:24:23;1.60;;;1.00;;
41923;SDS011;27613;48.116;11.656;2023-07-31T13:26:49;1.92;;;1.00;;
41923;SDS011;27613;48.116;11.656;2023-07-31T13:29:15;1.85;;;0.85;;
41923;SDS011;27613;48.116;11.656;2023-07-31T13:31:40;2.20;;;1.05;;
41923;SDS011;27613;48.116;11.656;2023-07-31T13:34:06;0.95;;;0.77;;
41923;SDS011;27613;48.116;11.656;2023-07-31T13:36:31;2.70;;;1.20;;
41923;SDS011;27613;48.116;11.656;2023-07-31T13:38:58;1.83;;;1.10;;
41923;SDS011;27613;48.116;11.656;2023-07-31T13:41:24;1.55;;;1.20;;
41923;SDS011;27613;48.116;11.656;2023-07-31T13:43:50;1.73;;;1.17;;
41923;SDS011;27613;48.116;11.656;2023-07-31T13:46:15;2.00;;;1.10;;
41923;SDS011;27613;48.116;11.656;2023-07-31T13:48:41;1.48;;;1.08;;
41923;SDS011;27613;48.116;11.656;2023-07-31T13:51:06;1.80;;;0.90;;
41923;SDS011;27613;48.116;11.656;2023-07-31T13:53:32;2.28;;;1.10;;
41923;SDS011;27613;48.116;11.656;2023-07-31T13:55:57;1.35;;;0.90;;
41923;SDS011;27613;48.116;11.656;2023-07-31T13:58:23;1.85;;;0.90;;
41923;SDS011;27613;48.116;11.656;2023-07-31T14:00:48;1.33;;;0.90;;
41923;SDS011;27613;48.116;11.656;2023-07-31T14:03:14;1.88;;;1.10;;
41923;SDS011;27613;48.116;11.656;2023-07-31T14:05:39;2.33;;;1.15;;
41923;SDS011;27613;48.116;11.656;2023-07-31T14:08:05;1.70;;;1.10;;
41923;SDS011;27613;48.116;11.656;2023-07-31T14:10:31;1.48;;;1.10;;
41923;SDS011;27613;48.116;11.656;2023-07-31T14:12:56;2.05;;;1.10;;
41923;SDS011;27613;48.116;11.656;2023-07-31T14:15:22;2.28;;;1.00;;
41923;SDS011;27613;48.116;11.656;2023-07-31T14:17:47;1.20;;;0.95;;
41923;SDS011;27613;48.116;11.656;2023-07-31T14:20:13;2.05;;;1.02;;
41923;SDS011;27613;48.116;11.656;2023-07-31T14:22:38;1.40;;;0.90;;
41923;SDS011;27613;48.116;11.656;2023-07-31T14:25:04;1.75;;;1.08;;
41923;SDS011;27613;48.116;11.656;2023-07-31T14:27:30;1.70;;;1.13;;
41923;SDS011;27613;48.116;11.656;2023-07-31T14:29:55;1.25;;;0.90;;
41923;SDS011;27613;48.116;11.656;2023-07-31T14:32:24;1.60;;;1.08;;
41923;SDS011;27613;48.116;11.656;2023-07-31T14:34:50;5.45;;;1.17;;
41923;SDS011;27613;48.116;11.656;2023-07-31T14:37:16;1.67;;;0.95;;
41923;SDS011;27613;48.116;11.656;2023-07-31T14:39:42;2.85;;;1.30;;
41923;SDS011;27613;48.116;11.656;2023-07-31T14:42:08;4.25;;;1.25;;